Time;durP1;ratioP1;P1;durP2;ratioP2;P2;SDS_P1;SDS_P2;PMS_P1;PMS_P2;Temp;Humidity;BMP_temperature;BMP_pressure;BME280_temperature;BME280_humidity;BME280_pressure;Samples;Min_cycle;Max_cycle;Signal;HPM_P1;HPM_P2
2022/04/03 00:01:14;;;;;;;;;;;;;;;4.24;65.67;101850.94;4413371;32;19953;-69
2022/04/03 00:03:41;;;;;;;;;;;;;;;4.13;65.98;101848.75;4414364;32;19996;-69
2022/04/03 00:06:06;;;;;;;;;;;;;;;4.08;65.83;101851.03;4414516;32;20455;-69
2022/04/03 00:08:32;;;;;;;;;;;;;;;5.24;62.13;101859.47;4402205;32;20008;-69
2022/04/03 00:10:57;;;;;;;;;;;;;;;5.41;60.72;101856.16;4415343;32;19965;-69
2022/04/03 00:13:23;;;;;;;;;;;;;;;5.52;60.32;101861.88;4416195;32;20007;-69
2022/04/03 00:15:49;;;;;;;;;;;;;;;5.45;60.43;101853.41;4411833;32;19957;-69
2022/04/03 00:18:14;;;;;;;;;;;;;;;5.40;60.57;101857.31;4418480;32;20013;-69
2022/04/03 00:20:41;;;;;;;;;;;;;;;5.43;60.17;101850.97;4414878;32;20303;-69
2022/04/03 00:23:07;;;;;;;;;;;;;;;5.40;60.40;101850.94;4413554;32;19953;-69
2022/04/03 00:25:35;;;;;;;;;;;;;;;5.27;60.55;101855.12;4413602;32;20300;-69
2022/04/03 00:28:02;;;;;;;;;;;;;;;5.36;60.51;101850.87;4417308;32;21355;-69
2022/04/03 00:30:28;;;;;;;;;;;;;;;5.32;60.42;101841.66;4413402;32;19954;-69
2022/04/03 00:32:53;;;;;;;;;;;;;;;5.27;60.85;101849.53;4415796;32;19983;-69
2022/04/03 00:35:20;;;;;;;;;;;;;;;5.34;60.57;101846.87;4415056;32;20013;-69
2022/04/03 00:37:46;;;;;;;;;;;;;;;5.31;60.73;101842.03;4415833;32;19999;-69
2022/04/03 00:40:12;;;;;;;;;;;;;;;5.24;60.86;101845.50;4416002;32;19969;-69
2022/04/03 00:42:38;;;;;;;;;;;;;;;5.34;60.23;101844.09;4418175;32;20020;-69
2022/04/03 00:45:04;;;;;;;;;;;;;;;5.15;60.59;101838.59;4415480;32;19961;-69
2022/04/03 00:47:30;;;;;;;;;;;;;;;5.14;60.95;101839.78;4421976;32;20304;-69
2022/04/03 00:49:56;;;;;;;;;;;;;;;5.10;61.15;101834.16;4416376;32;20343;-69
2022/04/03 00:52:22;;;;;;;;;;;;;;;5.03;60.81;101830.44;4419123;32;20049;-69
2022/04/03 00:54:48;;;;;;;;;;;;;;;5.18;60.60;101838.66;4419341;32;19983;-69
2022/04/03 00:57:14;;;;;;;;;;;;;;;5.15;60.52;101833.00;4417173;32;19964;-69
2022/04/03 00:59:41;;;;;;;;;;;;;;;5.19;60.12;101842.25;4413277;32;20436;-69
2022/04/03 01:02:07;;;;;;;;;;;;;;;5.17;60.04;101837.03;4416063;32;19953;-69
2022/04/03 01:04:32;;;;;;;;;;;;;;;5.10;60.32;101838.91;4420585;32;19984;-69
2022/04/03 01:06:58;;;;;;;;;;;;;;;4.72;61.91;101839.87;4420635;32;19972;-69
2022/04/03 01:09:24;;;;;;;;;;;;;;;4.43;62.86;101832.22;4414876;32;20202;-69
2022/04/03 01:11:49;;;;;;;;;;;;;;;3.46;65.27;101832.63;4416901;32;20004;-69
2022/04/03 01:14:35;;;;;;;;;;;;;;;3.44;65.78;101829.38;4412599;32;19980;-69
2022/04/03 01:17:01;;;;;;;;;;;;;;;3.37;66.42;101834.81;4412314;32;20259;-69
2022/04/03 01:19:28;;;;;;;;;;;;;;;4.65;62.46;101839.78;4414665;32;20362;-69
2022/04/03 01:21:53;;;;;;;;;;;;;;;4.85;61.27;101846.87;4405370;32;20166;-69
2022/04/03 01:24:20;;;;;;;;;;;;;;;4.84;61.21;101841.66;4416230;32;20365;-69
2022/04/03 01:26:46;;;;;;;;;;;;;;;4.87;61.00;101840.91;4417613;32;20054;-69
2022/04/03 01:29:12;;;;;;;;;;;;;;;4.93;60.86;101829.09;4419635;32;19958;-69
2022/04/03 01:31:38;;;;;;;;;;;;;;;3.88;63.31;101833.53;4409731;32;19992;-69
2022/04/03 01:34:03;;;;;;;;;;;;;;;4.78;61.16;101843.97;4413390;32;19959;-69
2022/04/03 01:36:29;;;;;;;;;;;;;;;4.91;60.75;101837.00;4413649;32;19957;-69
2022/04/03 01:38:54;;;;;;;;;;;;;;;4.84;61.12;101841.66;4418436;32;20451;-69
2022/04/03 01:41:20;;;;;;;;;;;;;;;3.41;65.52;101832.91;4412075;32;20715;-69
2022/04/03 01:43:45;;;;;;;;;;;;;;;3.21;66.71;101825.69;4415824;32;19991;-69
2022/04/03 01:46:11;;;;;;;;;;;;;;;4.43;63.10;101836.97;4420508;32;20421;-69
2022/04/03 01:48:36;;;;;;;;;;;;;;;4.62;61.99;101842.47;4416546;32;19978;-69
2022/04/03 01:51:02;;;;;;;;;;;;;;;4.75;61.58;101838.34;4416838;32;20032;-69
2022/04/03 01:53:28;;;;;;;;;;;;;;;4.61;61.61;101840.88;4418731;32;19953;-69
2022/04/03 01:55:57;;;;;;;;;;;;;;;4.66;61.27;101835.78;4416554;32;19989;-69
2022/04/03 01:58:23;;;;;;;;;;;;;;;4.69;60.89;101835.06;4407301;32;20011;-69
2022/04/03 02:00:49;;;;;;;;;;;;;;;4.74;60.80;101831.97;4413572;32;19962;-69
2022/04/03 02:03:15;;;;;;;;;;;;;;;4.61;61.28;101829.72;4417118;32;20449;-68
2022/04/03 02:05:40;;;;;;;;;;;;;;;4.67;61.29;101834.63;4417938;32;19958;-69
2022/04/03 02:08:06;;;;;;;;;;;;;;;4.56;61.97;101822.47;4400931;32;20003;-68
2022/04/03 02:10:32;;;;;;;;;;;;;;;4.65;61.58;101819.44;4420818;32;20002;-69
2022/04/03 02:12:58;;;;;;;;;;;;;;;4.76;60.84;101812.87;4419184;32;19964;-69
2022/04/03 02:15:23;;;;;;;;;;;;;;;4.90;60.47;101818.69;4418277;32;19992;-69
2022/04/03 02:17:49;;;;;;;;;;;;;;;4.74;60.92;101806.87;4421895;32;19954;-69
2022/04/03 02:20:15;;;;;;;;;;;;;;;4.56;61.35;101807.72;4423705;32;19985;-69
2022/04/03 02:22:41;;;;;;;;;;;;;;;4.31;62.75;101800.91;4422313;32;19985;-69
2022/04/03 02:25:09;;;;;;;;;;;;;;;4.56;61.91;101807.72;4420061;32;19958;-69
2022/04/03 02:27:36;;;;;;;;;;;;;;;4.57;61.75;101806.56;4420946;32;20326;-69
2022/04/03 02:30:03;;;;;;;;;;;;;;;4.68;61.03;101797.19;4416813;32;20344;-70
2022/04/03 02:32:30;;;;;;;;;;;;;;;4.54;61.33;101796.94;4416971;32;20006;-70
2022/04/03 02:34:57;;;;;;;;;;;;;;;4.50;61.81;101796.09;4421772;32;20031;-70
2022/04/03 02:37:23;;;;;;;;;;;;;;;4.56;61.61;101796.56;4416774;32;19962;-70
2022/04/03 02:39:48;;;;;;;;;;;;;;;4.68;61.47;101796.37;4423365;32;19985;-70
2022/04/03 02:42:14;;;;;;;;;;;;;;;4.25;62.78;101800.41;4416523;32;20386;-69
2022/04/03 02:44:39;;;;;;;;;;;;;;;4.30;62.40;101799.31;4419217;32;20012;-69
2022/04/03 02:47:05;;;;;;;;;;;;;;;4.46;62.33;101802.78;4417741;32;20000;-69
2022/04/03 02:49:31;;;;;;;;;;;;;;;3.28;65.22;101798.03;4417697;32;19985;-70
2022/04/03 02:51:56;;;;;;;;;;;;;;;2.76;67.94;101792.03;4422105;32;20045;-70
2022/04/03 02:54:22;;;;;;;;;;;;;;;2.63;68.77;101789.72;4417171;32;19989;-70
2022/04/03 02:56:48;;;;;;;;;;;;;;;2.61;68.82;101780.97;4421050;32;19953;-70
2022/04/03 02:59:13;;;;;;;;;;;;;;;2.65;69.05;101784.62;4420397;32;20090;-70
2022/04/03 03:01:41;;;;;;;;;;;;;;;2.73;68.97;101780.84;4419147;32;20000;-70
2022/04/03 03:04:06;;;;;;;;;;;;;;;2.91;68.70;101784.88;4419632;32;20022;-69
2022/04/03 03:06:32;;;;;;;;;;;;;;;2.87;68.23;101786.75;4422501;32;20009;-69
2022/04/03 03:08:58;;;;;;;;;;;;;;;2.85;68.55;101781.53;4419173;32;19953;-69
2022/04/03 03:11:23;;;;;;;;;;;;;;;2.85;68.40;101777.97;4419253;32;19957;-70
2022/04/03 03:13:49;;;;;;;;;;;;;;;2.86;68.54;101772.06;4418599;32;19982;-69
2022/04/03 03:16:14;;;;;;;;;;;;;;;2.90;68.38;101772.13;4406147;32;20004;-70
2022/04/03 03:18:40;;;;;;;;;;;;;;;3.10;67.40;101763.44;4420809;32;20374;-70
2022/04/03 03:21:05;;;;;;;;;;;;;;;3.14;67.03;101763.53;4421122;32;20310;-70
2022/04/03 03:23:32;;;;;;;;;;;;;;;2.92;67.68;101767.00;4422739;32;19967;-70
2022/04/03 03:25:57;;;;;;;;;;;;;;;2.97;67.83;101759.19;4420515;32;19988;-70
2022/04/03 03:28:23;;;;;;;;;;;;;;;3.03;67.63;101759.69;4419353;32;19996;-70
2022/04/03 03:30:48;;;;;;;;;;;;;;;3.12;67.26;101763.91;4418058;32;19950;-70
2022/04/03 03:33:14;;;;;;;;;;;;;;;3.12;67.39;101761.12;4420157;32;19945;-69
2022/04/03 03:35:40;;;;;;;;;;;;;;;2.89;68.45;101767.75;4414794;32;20397;-69
2022/04/03 03:38:07;;;;;;;;;;;;;;;2.97;68.34;101758.38;4422520;32;19961;-69
2022/04/03 03:40:37;;;;;;;;;;;;;;;3.10;67.46;101771.78;4422218;32;20021;-69
2022/04/03 03:43:03;;;;;;;;;;;;;;;3.22;67.65;101759.75;4416949;32;19969;-70
2022/04/03 03:45:28;;;;;;;;;;;;;;;3.38;67.27;101760.50;4418585;32;19945;-70
2022/04/03 03:47:54;;;;;;;;;;;;;;;3.48;66.83;101765.47;4418558;32;20000;-70
2022/04/03 03:50:20;;;;;;;;;;;;;;;3.79;65.80;101760.56;4415654;32;20210;-69
2022/04/03 03:52:46;;;;;;;;;;;;;;;3.85;65.46;101769.41;4417488;32;19962;-70
2022/04/03 03:55:11;;;;;;;;;;;;;;;3.52;66.26;101758.00;4419086;32;19959;-69
2022/04/03 03:57:38;;;;;;;;;;;;;;;3.63;66.01;101753.47;4419571;32;19977;-69
2022/04/03 04:00:05;;;;;;;;;;;;;;;3.64;66.09;101753.09;4417359;32;20216;-70
2022/04/03 04:02:31;;;;;;;;;;;;;;;3.65;66.31;101751.13;4412850;32;20021;-69
2022/04/03 04:04:57;;;;;;;;;;;;;;;3.72;65.81;101752.03;4416945;32;19962;-70
2022/04/03 04:07:22;;;;;;;;;;;;;;;3.74;66.21;101758.06;4402549;32;20681;-69
2022/04/03 04:09:48;;;;;;;;;;;;;;;3.82;66.23;101753.44;4417245;32;20255;-70
2022/04/03 04:12:14;;;;;;;;;;;;;;;3.97;65.84;101758.94;4422947;32;19961;-70
2022/04/03 04:14:40;;;;;;;;;;;;;;;3.98;65.60;101756.94;4421764;32;20224;-70
2022/04/03 04:17:07;;;;;;;;;;;;;;;4.04;65.37;101758.25;4415405;32;20344;-70
2022/04/03 04:19:34;;;;;;;;;;;;;;;4.17;65.30;101756.88;4420324;32;19953;-70
2022/04/03 04:21:59;;;;;;;;;;;;;;;4.23;65.31;101754.63;4420434;32;19949;-69
2022/04/03 04:24:25;;;;;;;;;;;;;;;4.34;64.44;101750.84;4418009;32;20007;-70
2022/04/03 04:26:51;;;;;;;;;;;;;;;4.32;64.77;101755.97;4416176;32;19990;-69
2022/04/03 04:29:18;;;;;;;;;;;;;;;4.41;64.12;101750.94;4419423;32;19957;-70
2022/04/03 04:31:43;;;;;;;;;;;;;;;4.45;64.80;101749.00;4418516;32;19965;-70
2022/04/03 04:34:08;;;;;;;;;;;;;;;4.56;64.12;101752.78;4405209;32;20006;-70
2022/04/03 04:36:35;;;;;;;;;;;;;;;4.69;63.91;101750.62;4421224;32;20448;-69
2022/04/03 04:39:00;;;;;;;;;;;;;;;4.70;64.08;101747.47;4421485;32;19993;-69
2022/04/03 04:41:26;;;;;;;;;;;;;;;4.82;63.15;101752.00;4421225;32;20033;-69
2022/04/03 04:43:51;;;;;;;;;;;;;;;4.84;63.19;101753.25;4421707;32;20365;-70
2022/04/03 04:46:18;;;;;;;;;;;;;;;4.84;62.93;101746.84;4417005;32;20347;-70
2022/04/03 04:48:44;;;;;;;;;;;;;;;4.97;63.21;101756.63;4415879;32;19949;-70
2022/04/03 04:51:09;;;;;;;;;;;;;;;5.06;62.90;101743.22;4417000;32;20008;-70
2022/04/03 04:53:35;;;;;;;;;;;;;;;5.09;62.84;101751.63;4420973;32;20069;-70
2022/04/03 04:56:01;;;;;;;;;;;;;;;5.09;62.44;101750.84;4418585;32;19954;-70
2022/04/03 04:58:27;;;;;;;;;;;;;;;5.20;62.71;101737.81;4418877;32;19964;-70
2022/04/03 05:00:53;;;;;;;;;;;;;;;5.15;62.38;101740.91;4397048;32;19957;-70
2022/04/03 05:03:19;;;;;;;;;;;;;;;5.29;62.58;101743.91;4418280;32;19953;-70
2022/04/03 05:05:45;;;;;;;;;;;;;;;5.20;62.23;101737.81;4419510;32;20061;-70
2022/04/03 05:08:11;;;;;;;;;;;;;;;5.33;62.22;101736.38;4401903;32;20479;-70
2022/04/03 05:10:36;;;;;;;;;;;;;;;5.33;62.17;101742.78;4412657;32;20027;-70
2022/04/03 05:13:02;;;;;;;;;;;;;;;5.30;62.03;101726.78;4414847;32;19965;-70
2022/04/03 05:15:30;;;;;;;;;;;;;;;5.41;62.06;101733.34;4420736;32;20359;-69
2022/04/03 05:17:56;;;;;;;;;;;;;;;5.39;62.57;101737.66;4417179;32;20023;-70
2022/04/03 05:20:21;;;;;;;;;;;;;;;5.53;62.80;101730.25;4413264;32;20388;-70
2022/04/03 05:22:48;;;;;;;;;;;;;;;5.61;62.43;101723.59;4416335;32;19958;-70
2022/04/03 05:25:13;;;;;;;;;;;;;;;5.63;61.69;101723.22;4418521;32;19995;-70
2022/04/03 05:27:40;;;;;;;;;;;;;;;5.70;62.23;101720.50;4416851;32;19984;-70
2022/04/03 05:30:05;;;;;;;;;;;;;;;5.72;62.16;101721.75;4418058;32;19993;-70
2022/04/03 05:32:32;;;;;;;;;;;;;;;5.73;62.01;101712.16;4418568;32;19976;-70
2022/04/03 05:34:58;;;;;;;;;;;;;;;5.78;62.15;101714.63;4412746;32;19965;-70
2022/04/03 05:37:23;;;;;;;;;;;;;;;5.81;62.24;101708.31;4418746;32;20042;-70
2022/04/03 05:39:51;;;;;;;;;;;;;;;5.77;62.59;101717.78;4418054;32;19965;-70
2022/04/03 05:42:16;;;;;;;;;;;;;;;5.80;62.14;101709.44;4419602;32;20380;-69
2022/04/03 05:44:42;;;;;;;;;;;;;;;5.79;62.88;101705.03;4417915;32;20013;-68
2022/04/03 05:47:07;;;;;;;;;;;;;;;5.85;63.27;101703.53;4417989;32;19989;-68
2022/04/03 05:49:33;;;;;;;;;;;;;;;5.81;62.33;101707.47;4415018;32;20496;-70
2022/04/03 05:51:59;;;;;;;;;;;;;;;5.97;63.02;101705.25;4416212;32;20006;-69
2022/04/03 05:54:25;;;;;;;;;;;;;;;5.99;62.40;101705.69;4415670;32;19957;-69
2022/04/03 05:56:50;;;;;;;;;;;;;;;6.05;63.02;101699.34;4416605;32;20294;-70
2022/04/03 05:59:18;;;;;;;;;;;;;;;6.01;62.83;101698.50;4414106;32;20044;-70
2022/04/03 06:01:44;;;;;;;;;;;;;;;6.07;63.09;101701.75;4413731;32;20443;-70
2022/04/03 06:04:09;;;;;;;;;;;;;;;6.16;62.17;101707.84;4414260;32;19957;-70
2022/04/03 06:06:35;;;;;;;;;;;;;;;6.29;62.37;101708.34;4416512;32;19977;-69
2022/04/03 06:09:00;;;;;;;;;;;;;;;6.44;61.94;101707.28;4413920;32;20329;-70
2022/04/03 06:11:26;;;;;;;;;;;;;;;6.28;62.13;101699.16;4412039;32;19970;-70
2022/04/03 06:13:52;;;;;;;;;;;;;;;6.45;61.90;101703.28;4419642;32;20001;-70
2022/04/03 06:16:17;;;;;;;;;;;;;;;6.54;61.91;101700.97;4419845;32;20002;-70
2022/04/03 06:18:43;;;;;;;;;;;;;;;6.63;61.30;101701.44;4414119;32;20004;-68
2022/04/03 06:21:09;;;;;;;;;;;;;;;6.69;61.25;101700.66;4411376;32;19950;-70
2022/04/03 06:23:34;;;;;;;;;;;;;;;6.84;60.46;101701.59;4414023;32;19962;-70
2022/04/03 06:26:00;;;;;;;;;;;;;;;7.02;57.67;101694.09;4416588;32;19995;-69
2022/04/03 06:28:25;;;;;;;;;;;;;;;7.17;57.21;101702.19;4419390;32;19997;-69
2022/04/03 06:30:52;;;;;;;;;;;;;;;7.37;56.21;101705.47;4416862;32;19958;-69
2022/04/03 06:33:18;;;;;;;;;;;;;;;7.56;54.98;101710.75;4415580;32;19950;-69
2022/04/03 06:35:44;;;;;;;;;;;;;;;7.72;55.39;101711.19;4397462;32;19969;-69
2022/04/03 06:38:11;;;;;;;;;;;;;;;7.83;55.19;101717.66;4418922;32;19981;-69
2022/04/03 06:40:37;;;;;;;;;;;;;;;7.96;55.06;101721.66;4413108;32;20378;-69
2022/04/03 06:43:02;;;;;;;;;;;;;;;8.07;55.10;101716.88;4419240;32;19996;-69
2022/04/03 06:45:28;;;;;;;;;;;;;;;8.23;54.39;101716.53;4415481;32;20012;-69
2022/04/03 06:47:55;;;;;;;;;;;;;;;8.35;53.82;101716.16;4418371;32;19993;-69
2022/04/03 06:50:21;;;;;;;;;;;;;;;8.38;53.76;101721.78;4419289;32;19965;-69
2022/04/03 06:52:47;;;;;;;;;;;;;;;8.43;52.54;101729.00;4415532;32;19960;-69
2022/04/03 06:55:13;;;;;;;;;;;;;;;8.53;51.92;101720.53;4420001;32;19973;-69
2022/04/03 06:57:39;;;;;;;;;;;;;;;8.46;52.22;101725.34;4421899;32;20009;-69
2022/04/03 07:00:06;;;;;;;;;;;;;;;8.57;51.08;101715.75;4419557;32;19981;-70
2022/04/03 07:02:32;;;;;;;;;;;;;;;8.80;51.02;101718.16;4418080;32;20507;-70
2022/04/03 07:04:58;;;;;;;;;;;;;;;8.75;50.85;101719.34;4422823;32;19949;-70
2022/04/03 07:07:24;;;;;;;;;;;;;;;8.87;50.04;101720.94;4420414;32;20045;-70
2022/04/03 07:09:50;;;;;;;;;;;;;;;9.00;49.91;101714.50;4417801;32;19958;-70
2022/04/03 07:12:16;;;;;;;;;;;;;;;9.08;49.66;101716.06;4420466;32;20012;-70
2022/04/03 07:14:42;;;;;;;;;;;;;;;9.09;49.23;101714.06;4420086;32;19993;-69
2022/04/03 07:17:08;;;;;;;;;;;;;;;9.14;48.90;101720.06;4419262;32;20405;-69
2022/04/03 07:19:34;;;;;;;;;;;;;;;9.18;48.78;101722.88;4414428;32;20015;-69
2022/04/03 07:22:00;;;;;;;;;;;;;;;9.19;48.80;101718.84;4416803;32;20391;-69
2022/04/03 07:24:26;;;;;;;;;;;;;;;9.28;48.62;101720.03;4416812;32;20371;-70
2022/04/03 07:26:53;;;;;;;;;;;;;;;9.23;48.80;101709.22;4425545;32;20299;-70
2022/04/03 07:29:20;;;;;;;;;;;;;;;9.24;48.76;101719.22;4422670;32;19960;-69
2022/04/03 07:31:46;;;;;;;;;;;;;;;9.37;48.47;101711.19;4421565;32;19985;-70
2022/04/03 07:34:12;;;;;;;;;;;;;;;9.52;48.23;101705.09;4417806;32;19988;-69
2022/04/03 07:36:37;;;;;;;;;;;;;;;9.51;48.30;101714.72;4420095;32;19986;-70
2022/04/03 07:39:03;;;;;;;;;;;;;;;9.47;48.06;101705.50;4420091;32;19989;-70
2022/04/03 07:41:28;;;;;;;;;;;;;;;9.54;48.27;101710.28;4420145;32;19964;-69
2022/04/03 07:43:54;;;;;;;;;;;;;;;9.75;47.68;101713.81;4419831;32;19980;-70
2022/04/03 07:46:20;;;;;;;;;;;;;;;10.10;47.29;101716.44;4421731;32;19953;-70
2022/04/03 07:48:45;;;;;;;;;;;;;;;10.28;46.73;101710.69;4418087;32;19997;-69
2022/04/03 07:51:11;;;;;;;;;;;;;;;10.40;46.60;101706.59;4419904;32;19957;-69
2022/04/03 07:53:37;;;;;;;;;;;;;;;10.32;47.03;101716.28;4423733;32;20454;-69
2022/04/03 07:56:05;;;;;;;;;;;;;;;10.75;46.26;101717.53;4421055;32;19993;-69
2022/04/03 07:58:34;;;;;;;;;;;;;;;10.72;46.02;101715.56;4420643;32;20041;-69
2022/04/03 08:01:00;;;;;;;;;;;;;;;10.95;45.95;101710.12;4416292;32;19946;-69
2022/04/03 08:03:26;;;;;;;;;;;;;;;10.95;45.66;101708.06;4420370;32;20327;-70
2022/04/03 08:05:53;;;;;;;;;;;;;;;11.13;45.49;101717.16;4405991;32;19985;-70
2022/04/03 08:08:19;;;;;;;;;;;;;;;10.96;45.94;101714.53;4421650;32;19945;-69
2022/04/03 08:10:45;;;;;;;;;;;;;;;11.15;45.52;101717.53;4413570;32;20833;-69
2022/04/03 08:13:14;;;;;;;;;;;;;;;10.91;45.78;101720.59;4417272;32;19969;-69
2022/04/03 08:15:40;;;;;;;;;;;;;;;10.86;46.01;101724.66;4415214;32;20403;-70
2022/04/03 08:18:06;;;;;;;;;;;;;;;10.93;45.97;101723.81;4418188;32;20005;-69
2022/04/03 08:20:31;;;;;;;;;;;;;;;10.80;46.43;101715.06;4415239;32;20018;-69
2022/04/03 08:23:00;;;;;;;;;;;;;;;10.83;46.54;101724.72;4418925;32;19968;-69
2022/04/03 08:25:25;;;;;;;;;;;;;;;10.78;46.79;101725.16;4417393;32;20044;-70
2022/04/03 08:27:53;;;;;;;;;;;;;;;10.64;46.86;101722.44;4420238;32;20338;-69
2022/04/03 08:30:20;;;;;;;;;;;;;;;10.90;46.52;101730.28;4413926;32;20471;-70
2022/04/03 08:32:46;;;;;;;;;;;;;;;10.61;47.07;101723.31;4412052;32;20009;-70
2022/04/03 08:35:12;;;;;;;;;;;;;;;10.62;47.34;101728.53;4415478;32;19972;-70
2022/04/03 08:37:39;;;;;;;;;;;;;;;10.83;46.79;101727.53;4421631;32;19961;-70
2022/04/03 08:40:05;;;;;;;;;;;;;;;10.98;46.53;101717.72;4409667;32;19957;-70
2022/04/03 08:42:31;;;;;;;;;;;;;;;10.90;47.21;101733.09;4413201;32;19996;-70
2022/04/03 08:44:56;;;;;;;;;;;;;;;10.87;46.97;101717.03;4417378;32;19957;-69
2022/04/03 08:47:24;;;;;;;;;;;;;;;10.79;47.70;101723.94;4403393;32;20434;-70
2022/04/03 08:49:50;;;;;;;;;;;;;;;10.69;48.30;101730.47;4416464;32;20316;-70
2022/04/03 08:52:15;;;;;;;;;;;;;;;10.41;48.92;101728.69;4418516;32;20328;-69
2022/04/03 08:54:41;;;;;;;;;;;;;;;10.35;49.54;101729.53;4421306;32;19994;-69
2022/04/03 08:57:07;;;;;;;;;;;;;;;10.11;50.08;101734.13;4417575;32;19989;-69
2022/04/03 08:59:33;;;;;;;;;;;;;;;9.99;50.16;101726.94;4417082;32;19954;-69
2022/04/03 09:01:58;;;;;;;;;;;;;;;9.95;50.61;101734.56;4414955;32;20045;-69
2022/04/03 09:04:24;;;;;;;;;;;;;;;9.84;51.00;101733.84;4416034;32;19962;-70
2022/04/03 09:06:57;;;;;;;;;;;;;;;9.74;51.17;101723.47;4418326;32;19976;-69
2022/04/03 09:09:24;;;;;;;;;;;;;;;10.02;51.01;101726.13;4418756;32;20340;-69
2022/04/03 09:12:09;;;;;;;;;;;;;;;10.19;50.76;101724.44;4420161;32;19950;-70
2022/04/03 09:14:35;;;;;;;;;;;;;;;10.60;49.20;101727.31;4414416;32;20291;-70
2022/04/03 09:17:01;;;;;;;;;;;;;;;10.94;48.72;101723.38;4413025;32;20209;-70
2022/04/03 09:19:34;;;;;;;;;;;;;;;10.84;48.55;101721.47;4416576;32;20334;-70
2022/04/03 09:22:01;;;;;;;;;;;;;;;10.92;48.49;101716.59;4417497;32;19958;-69
2022/04/03 09:24:28;;;;;;;;;;;;;;;10.92;48.57;101722.22;4417130;32;19991;-69
2022/04/03 09:26:57;;;;;;;;;;;;;;;10.96;48.54;101722.97;4417691;32;19966;-69
2022/04/03 09:29:23;;;;;;;;;;;;;;;11.07;48.38;101718.00;4416762;32;20512;-69
2022/04/03 09:31:49;;;;;;;;;;;;;;;11.23;48.24;101718.25;4413120;32;19980;-69
2022/04/03 09:34:16;;;;;;;;;;;;;;;11.23;48.01;101712.63;4417111;32;19964;-69
2022/04/03 09:36:42;;;;;;;;;;;;;;;11.62;47.33;101713.78;4416887;32;19969;-70
2022/04/03 09:39:09;;;;;;;;;;;;;;;11.60;47.25;101723.84;4413744;32;20003;-70
2022/04/03 09:41:53;;;;;;;;;;;;;;;11.85;47.02;101715.91;4414164;32;19967;-70
2022/04/03 09:44:18;;;;;;;;;;;;;;;12.27;46.33;101706.78;4416430;32;20351;-70
2022/04/03 09:46:44;;;;;;;;;;;;;;;12.55;45.54;101711.19;4415785;32;19972;-70
2022/04/03 09:49:26;;;;;;;;;;;;;;;13.15;43.48;101711.75;4417559;32;20383;-70
2022/04/03 09:51:51;;;;;;;;;;;;;;;12.87;42.67;101720.72;4418811;32;19949;-70
2022/04/03 09:54:17;;;;;;;;;;;;;;;12.30;44.20;101699.50;4414924;32;19963;-69
2022/04/03 09:56:43;;;;;;;;;;;;;;;12.32;43.92;101711.16;4421701;32;20000;-70
2022/04/03 09:59:09;;;;;;;;;;;;;;;11.94;44.56;101711.31;4417000;32;19997;-70
2022/04/03 10:01:38;;;;;;;;;;;;;;;11.68;45.62;101705.63;4420208;32;20331;-70
2022/04/03 10:04:06;;;;;;;;;;;;;;;11.75;45.53;101703.53;4418402;32;19961;-70
2022/04/03 10:06:32;;;;;;;;;;;;;;;11.76;45.49;101705.13;4417161;32;19954;-70
2022/04/03 10:08:59;;;;;;;;;;;;;;;12.07;45.04;101698.25;4419631;32;19962;-69
2022/04/03 10:11:24;;;;;;;;;;;;;;;12.13;44.72;101693.69;4418743;32;19949;-70
2022/04/03 10:13:50;;;;;;;;;;;;;;;12.17;45.10;101690.81;4411884;32;19976;-70
2022/04/03 10:16:16;;;;;;;;;;;;;;;12.63;44.38;101699.34;4419526;32;20389;-69
2022/04/03 10:18:43;;;;;;;;;;;;;;;12.73;44.34;101686.28;4415697;32;19945;-70
2022/04/03 10:21:29;;;;;;;;;;;;;;;13.61;42.64;101682.53;4412415;32;19949;-70
2022/04/03 10:24:04;;;;;;;;;;;;;;;14.34;39.04;101674.41;4416588;32;19968;-69
2022/04/03 10:26:33;;;;;;;;;;;;;;;15.22;38.03;101670.00;4415613;32;19989;-69
2022/04/03 10:28:59;;;;;;;;;;;;;;;16.06;34.76;101663.84;4415895;32;20012;-70
2022/04/03 10:31:26;;;;;;;;;;;;;;;16.67;33.53;101666.31;4413977;32;19994;-70
2022/04/03 10:33:52;;;;;;;;;;;;;;;17.35;31.88;101667.06;4417135;32;19949;-69
2022/04/03 10:36:36;;;;;;;;;;;;;;;17.01;30.29;101672.81;4416921;32;20374;-69
2022/04/03 10:39:09;;;;;;;;;;;;;;;16.87;30.37;101673.28;4416921;32;19987;-70
2022/04/03 10:41:36;;;;;;;;;;;;;;;16.44;30.58;101652.50;4420372;32;19949;-69
2022/04/03 10:44:19;;;;;;;;;;;;;;;16.10;30.43;101656.00;4422251;32;19973;-69
2022/04/03 10:47:04;;;;;;;;;;;;;;;15.70;31.68;101657.66;4418607;32;20042;-69
2022/04/03 10:49:30;;;;;;;;;;;;;;;15.76;32.09;101653.84;4418362;32;19972;-70
2022/04/03 10:52:01;;;;;;;;;;;;;;;15.44;32.48;101648.31;4420062;32;19989;-70
2022/04/03 10:54:29;;;;;;;;;;;;;;;15.38;33.31;101646.50;4423146;32;19958;-69
2022/04/03 10:57:14;;;;;;;;;;;;;;;15.78;33.17;101650.53;4423269;32;20000;-69
2022/04/03 10:59:40;;;;;;;;;;;;;;;16.30;31.81;101633.84;4415934;32;19965;-69
2022/04/03 11:02:14;;;;;;;;;;;;;;;16.73;30.85;101642.53;4416625;32;20450;-69
2022/04/03 11:04:40;;;;;;;;;;;;;;;17.05;30.29;101649.91;4421621;32;20019;-69
2022/04/03 11:07:13;;;;;;;;;;;;;;;17.09;29.91;101651.38;4418916;32;20008;-69
2022/04/03 11:09:40;;;;;;;;;;;;;;;17.61;28.36;101634.38;4415456;32;19968;-69
2022/04/03 11:12:06;;;;;;;;;;;;;;;17.70;27.89;101617.34;4416944;32;20859;-69
2022/04/03 11:14:51;;;;;;;;;;;;;;;18.09;26.46;101620.69;4420575;32;19969;-69
2022/04/03 11:17:18;;;;;;;;;;;;;;;17.84;26.30;101627.38;4423172;32;20571;-70
2022/04/03 11:19:45;;;;;;;;;;;;;;;17.76;26.65;101614.69;4415141;32;20507;-69
2022/04/03 11:22:13;;;;;;;;;;;;;;;16.66;28.67;101616.41;4415947;32;19989;-69
2022/04/03 11:24:39;;;;;;;;;;;;;;;15.89;30.29;101605.56;4419574;32;19993;-70
2022/04/03 11:27:06;;;;;;;;;;;;;;;16.04;29.08;101609.53;4417865;32;19998;-70
2022/04/03 11:29:32;;;;;;;;;;;;;;;16.43;29.12;101602.56;4413343;32;19976;-70
2022/04/03 11:31:57;;;;;;;;;;;;;;;17.24;28.74;101606.91;4420577;32;20400;-70
2022/04/03 11:34:30;;;;;;;;;;;;;;;17.37;28.84;101604.78;4418807;32;19958;-70
2022/04/03 11:36:57;;;;;;;;;;;;;;;17.14;29.08;101607.31;4419166;32;20373;-71
2022/04/03 11:39:29;;;;;;;;;;;;;;;16.42;29.92;101600.97;4419388;32;20332;-70
2022/04/03 11:41:55;;;;;;;;;;;;;;;15.74;31.29;101598.78;4419562;32;19990;-70
2022/04/03 11:44:21;;;;;;;;;;;;;;;14.80;33.25;101605.19;4417447;32;19961;-70
2022/04/03 11:46:48;;;;;;;;;;;;;;;14.08;35.33;101607.44;4418255;32;19977;-70
2022/04/03 11:49:16;;;;;;;;;;;;;;;13.66;36.57;101606.44;4419185;32;19989;-70
2022/04/03 11:51:42;;;;;;;;;;;;;;;13.35;37.04;101613.59;4424069;32;20019;-70
2022/04/03 11:54:07;;;;;;;;;;;;;;;12.99;37.09;101609.09;4419882;32;19949;-69
2022/04/03 11:56:35;;;;;;;;;;;;;;;12.97;37.44;101601.06;4421690;32;20058;-69
2022/04/03 11:59:01;;;;;;;;;;;;;;;13.00;37.83;101600.22;4420220;32;20366;-69
2022/04/03 12:04:08;;;;;;;;;;;;;;;13.65;37.89;101599.19;3952524;32;15747509;-69
2022/04/03 12:06:35;;;;;;;;;;;;;;;13.65;37.89;101599.19;4438348;32;20021;-69
2022/04/03 12:09:04;;;;;;;;;;;;;;;13.16;38.71;101594.62;4435839;32;19941;-69
2022/04/03 12:11:30;;;;;;;;;;;;;;;13.17;38.72;101587.75;4435635;32;19990;-69
2022/04/03 12:13:57;;;;;;;;;;;;;;;13.03;39.45;101595.72;4434417;32;19968;-69
2022/04/03 12:16:26;;;;;;;;;;;;;;;13.11;39.42;101583.03;4438188;32;20312;-69
2022/04/03 12:18:52;;;;;;;;;;;;;;;13.15;39.38;101584.56;4433097;32;20006;-70
2022/04/03 12:21:18;;;;;;;;;;;;;;;13.49;38.97;101582.19;4427856;32;20009;-69
2022/04/03 12:24:03;;;;;;;;;;;;;;;13.78;37.99;101580.28;4435670;32;20362;-69
2022/04/03 12:26:30;;;;;;;;;;;;;;;13.68;37.62;101570.03;4433243;32;19996;-69
2022/04/03 12:28:56;;;;;;;;;;;;;;;13.41;37.95;101571.47;4434721;32;19995;-70
2022/04/03 12:31:26;;;;;;;;;;;;;;;13.25;38.65;101575.03;4436580;32;19957;-70
2022/04/03 12:34:02;;;;;;;;;;;;;;;13.40;38.71;101573.50;4416277;32;20452;-70
2022/04/03 12:36:34;;;;;;;;;;;;;;;13.50;38.69;101566.81;4438397;32;20291;-70
2022/04/03 12:39:00;;;;;;;;;;;;;;;13.93;38.07;101563.78;4436974;32;19953;-70
2022/04/03 12:41:26;;;;;;;;;;;;;;;13.76;38.52;101553.69;4435693;32;20006;-70
2022/04/03 12:43:55;;;;;;;;;;;;;;;13.88;38.33;101550.97;4422467;32;19996;-70